createdAt,value
2019-05-07T00:01:23.493Z,17.00
2019-05-07T00:03:57.653Z,18.43
2019-05-07T00:06:32.742Z,19.17
2019-05-07T00:09:06.278Z,18.13
2019-05-07T00:11:37.725Z,15.20
2019-05-07T00:14:12.465Z,17.93
2019-05-07T00:16:44.720Z,19.97
2019-05-07T00:19:16.973Z,22.40
2019-05-07T00:21:48.329Z,20.00
2019-05-07T00:24:22.342Z,19.20
2019-05-07T00:26:56.894Z,21.47
2019-05-07T00:29:29.385Z,17.43
2019-05-07T00:32:04.837Z,16.57
2019-05-07T00:34:39.279Z,16.63
2019-05-07T00:37:17.202Z,19.60
2019-05-07T00:39:53.018Z,17.60
2019-05-07T00:42:38.349Z,15.53
2019-05-07T00:45:20.371Z,14.37
2019-05-07T00:47:45.876Z,13.97
2019-05-07T00:50:22.527Z,16.73
2019-05-07T00:52:55.645Z,16.53
2019-05-07T00:55:28.176Z,15.83
2019-05-07T00:58:02.553Z,14.97
2019-05-07T01:00:36.487Z,14.97
2019-05-07T01:03:09.805Z,14.50
2019-05-07T01:05:43.222Z,16.10
2019-05-07T01:08:14.389Z,14.17
2019-05-07T01:10:48.881Z,13.43
2019-05-07T01:13:23.408Z,16.63
2019-05-07T01:15:55.009Z,14.37
2019-05-07T01:18:27.816Z,15.00
2019-05-07T01:21:02.274Z,16.33
2019-05-07T01:23:33.722Z,17.87
2019-05-07T01:26:06.258Z,13.17
2019-05-07T01:28:47.735Z,16.63
2019-05-07T01:31:19.431Z,19.50
2019-05-07T01:33:55.429Z,14.60
2019-05-07T01:36:27.265Z,15.97
2019-05-07T01:38:59.701Z,15.90
2019-05-07T01:41:32.639Z,18.93
2019-05-07T01:44:07.185Z,21.57
2019-05-07T01:46:42.088Z,17.83
2019-05-07T01:49:14.142Z,18.87
2019-05-07T01:51:46.826Z,16.60
2019-05-07T01:54:19.365Z,18.47
2019-05-07T01:56:53.725Z,18.90
2019-05-07T01:59:28.627Z,18.73
2019-05-07T02:02:04.369Z,18.17
2019-05-07T02:04:38.729Z,20.27
2019-05-07T02:07:22.683Z,22.00
2019-05-07T02:09:57.193Z,19.47
2019-05-07T02:12:31.939Z,21.50
2019-05-07T02:15:06.082Z,23.30
2019-05-07T02:17:38.453Z,20.33
2019-05-07T02:20:13.120Z,20.87
2019-05-07T02:22:47.653Z,20.30
2019-05-07T02:25:22.117Z,24.43
2019-05-07T02:27:54.577Z,24.67
2019-05-07T02:30:26.748Z,21.50
2019-05-07T02:33:03.616Z,23.43
2019-05-07T02:35:34.021Z,22.00
2019-05-07T02:38:17.384Z,21.03
2019-05-07T02:40:53.644Z,25.10
2019-05-07T02:43:25.325Z,21.30
2019-05-07T02:46:26.089Z,27.10
2019-05-07T02:49:08.727Z,26.67
2019-05-07T02:51:47.022Z,25.63
2019-05-07T02:54:23.804Z,24.63
2019-05-07T02:56:55.282Z,24.60
2019-05-07T02:59:28.232Z,23.97
2019-05-07T03:02:03.644Z,20.43
2019-05-07T03:04:35.630Z,24.03
2019-05-07T03:07:07.396Z,22.23
2019-05-07T03:09:43.209Z,24.10
2019-05-07T03:12:14.483Z,26.53
2019-05-07T03:14:47.065Z,26.10
2019-05-07T03:17:19.484Z,25.17
2019-05-07T03:19:53.534Z,23.53
2019-05-07T03:22:25.278Z,25.23
2019-05-07T03:25:04.800Z,23.97
2019-05-07T03:27:38.003Z,25.20
2019-05-07T03:30:17.041Z,18.73
2019-05-07T03:32:55.884Z,26.17
2019-05-07T03:35:27.904Z,26.43
2019-05-07T03:38:03.130Z,26.97
2019-05-07T03:40:34.469Z,26.27
2019-05-07T03:43:06.624Z,25.30
2019-05-07T03:45:43.811Z,26.67
2019-05-07T03:48:23.947Z,28.03
2019-05-07T03:50:55.546Z,26.90
2019-05-07T03:53:27.207Z,28.50
2019-05-07T03:56:04.429Z,25.50
2019-05-07T03:58:37.283Z,24.73
2019-05-07T04:01:13.149Z,29.27
2019-05-07T04:03:44.378Z,28.07
2019-05-07T04:06:17.389Z,27.37
2019-05-07T04:08:52.982Z,24.63
2019-05-07T04:11:24.563Z,24.53
2019-05-07T04:13:57.892Z,26.60
2019-05-07T04:16:33.345Z,26.60
2019-05-07T04:19:04.849Z,27.03
2019-05-07T04:21:36.306Z,25.83
2019-05-07T04:24:24.257Z,26.60
2019-05-07T04:26:58.136Z,25.73
2019-05-07T04:29:29.884Z,29.20
2019-05-07T04:32:03.294Z,25.03
2019-05-07T04:34:45.617Z,26.80
2019-05-07T04:37:20.011Z,26.97
2019-05-07T04:39:55.542Z,26.50
2019-05-07T04:42:28.235Z,26.20
2019-05-07T04:45:04.271Z,31.97
2019-05-07T04:47:42.942Z,28.80
2019-05-07T04:50:13.923Z,20.53
2019-05-07T04:52:49.454Z,26.97
2019-05-07T04:55:22.931Z,27.30
2019-05-07T04:57:55.632Z,27.40
2019-05-07T05:00:29.380Z,25.60
2019-05-07T05:03:19.454Z,25.80
2019-05-07T05:05:53.263Z,31.33
2019-05-07T05:08:26.285Z,33.83
2019-05-07T05:10:58.134Z,28.17
2019-05-07T05:13:33.099Z,27.80
2019-05-07T05:16:05.671Z,26.37
2019-05-07T05:18:37.401Z,27.20
2019-05-07T05:21:14.479Z,29.43
2019-05-07T05:23:52.341Z,27.57
2019-05-07T05:26:25.133Z,30.37
2019-05-07T05:28:59.614Z,27.40
2019-05-07T05:31:33.029Z,28.50
2019-05-07T05:34:05.942Z,29.70
2019-05-07T05:36:37.198Z,26.50
2019-05-07T05:39:12.938Z,29.40
2019-05-07T05:41:46.482Z,29.33
2019-05-07T05:44:27.546Z,28.87
2019-05-07T05:47:02.332Z,28.90
2019-05-07T05:49:34.429Z,32.57
2019-05-07T05:52:08.545Z,28.73
2019-05-07T05:54:42.743Z,27.63
2019-05-07T05:57:16.197Z,27.07
2019-05-07T06:00:06.914Z,30.17
2019-05-07T06:02:44.199Z,29.70
2019-05-07T06:05:34.662Z,29.57
2019-05-07T06:08:21.097Z,29.57
2019-05-07T06:10:54.385Z,29.60
2019-05-07T06:13:26.994Z,31.73
2019-05-07T06:16:03.056Z,27.43
2019-05-07T06:18:41.823Z,29.40
2019-05-07T06:21:27.145Z,28.93
2019-05-07T06:24:03.961Z,26.17
2019-05-07T06:26:36.527Z,26.43
2019-05-07T06:29:09.024Z,28.57
2019-05-07T06:31:42.168Z,28.03
2019-05-07T06:34:15.922Z,28.50
2019-05-07T06:36:47.642Z,30.37
2019-05-07T06:39:19.123Z,28.03
2019-05-07T06:42:12.655Z,24.73
2019-05-07T06:44:45.393Z,21.03
2019-05-07T06:47:18.023Z,30.17
2019-05-07T06:49:49.243Z,25.73
2019-05-07T06:52:22.438Z,27.50
2019-05-07T06:54:56.305Z,25.57
2019-05-07T06:57:32.827Z,23.53
2019-05-07T07:00:22.739Z,27.17
2019-05-07T07:03:14.438Z,23.93
2019-05-07T07:05:48.532Z,25.63
2019-05-07T07:08:24.344Z,25.17
2019-05-07T07:11:03.005Z,22.03
2019-05-07T07:13:35.687Z,23.33
2019-05-07T07:16:08.126Z,22.53
2019-05-07T07:18:49.545Z,20.73
2019-05-07T07:21:14.126Z,18.43
2019-05-07T07:23:47.130Z,18.03
2019-05-07T07:26:18.311Z,18.97
2019-05-07T07:28:52.504Z,19.90
2019-05-07T07:31:31.721Z,22.43
2019-05-07T07:34:05.595Z,24.53
2019-05-07T07:36:42.234Z,19.83
2019-05-07T07:39:12.791Z,23.23
2019-05-07T07:41:47.154Z,26.17
2019-05-07T07:44:22.229Z,21.63
2019-05-07T07:46:53.890Z,25.97
2019-05-07T07:49:27.736Z,28.87
2019-05-07T07:51:59.962Z,24.60
2019-05-07T07:54:32.176Z,24.00
2019-05-07T07:57:14.023Z,24.40
2019-05-07T07:59:54.435Z,19.20
2019-05-07T08:02:34.242Z,26.00
2019-05-07T08:05:06.772Z,23.90
2019-05-07T08:07:38.542Z,22.17
2019-05-07T08:10:12.839Z,22.70
2019-05-07T08:12:44.233Z,23.63
2019-05-07T08:15:21.218Z,21.27
2019-05-07T08:17:52.161Z,23.00
2019-05-07T08:20:26.676Z,22.33
2019-05-07T08:22:59.317Z,25.77
2019-05-07T08:25:49.354Z,21.63
2019-05-07T08:28:23.204Z,22.30
2019-05-07T08:31:12.067Z,29.10
2019-05-07T08:33:46.920Z,24.90
2019-05-07T08:36:22.757Z,25.73
2019-05-07T08:38:56.610Z,27.60
2019-05-07T08:41:31.998Z,22.50
2019-05-07T08:44:17.055Z,23.20
2019-05-07T08:46:55.050Z,20.77
2019-05-07T08:49:36.797Z,20.80
2019-05-07T08:52:03.590Z,20.00
2019-05-07T08:54:35.511Z,20.43
2019-05-07T08:57:07.246Z,22.03
2019-05-07T08:59:39.031Z,20.70
2019-05-07T09:02:12.657Z,19.07
2019-05-07T09:04:45.650Z,18.87
2019-05-07T09:07:18.456Z,16.97
2019-05-07T09:09:52.309Z,16.27
2019-05-07T09:12:24.188Z,15.80
2019-05-07T09:14:55.145Z,16.47
2019-05-07T09:17:27.805Z,17.20
2019-05-07T09:19:58.541Z,18.67
2019-05-07T09:22:32.903Z,16.77
2019-05-07T09:25:07.415Z,15.60
2019-05-07T09:27:47.448Z,18.03
2019-05-07T09:30:22.142Z,21.80
2019-05-07T09:33:02.336Z,18.77
2019-05-07T09:35:36.293Z,17.83
2019-05-07T09:38:09.525Z,20.83
2019-05-07T09:40:42.125Z,16.00
2019-05-07T09:43:13.675Z,19.47
2019-05-07T09:45:46.352Z,20.53
2019-05-07T09:48:19.152Z,18.23
2019-05-07T09:50:53.069Z,23.77
2019-05-07T09:53:25.955Z,21.13
2019-05-07T09:56:01.987Z,20.13
2019-05-07T09:58:38.891Z,19.23
2019-05-07T10:01:08.027Z,21.50
2019-05-07T10:03:42.874Z,20.10
2019-05-07T10:06:14.981Z,19.60
2019-05-07T10:08:47.910Z,19.97
2019-05-07T10:11:22.518Z,18.70
2019-05-07T10:14:01.953Z,22.67
2019-05-07T10:16:41.871Z,22.17
2019-05-07T10:19:17.431Z,18.40
2019-05-07T10:21:52.962Z,19.20
2019-05-07T10:24:26.075Z,20.30
2019-05-07T10:26:58.049Z,21.83
2019-05-07T10:29:29.459Z,21.43
2019-05-07T10:32:03.466Z,23.87
2019-05-07T10:34:35.857Z,19.83
2019-05-07T10:37:08.118Z,20.50
2019-05-07T10:39:40.486Z,21.27
2019-05-07T10:42:15.429Z,24.90
2019-05-07T10:44:49.456Z,20.50
2019-05-07T10:47:31.661Z,21.13
2019-05-07T10:50:16.406Z,15.80
2019-05-07T10:52:49.492Z,19.43
2019-05-07T10:55:22.309Z,15.73
2019-05-07T10:57:54.701Z,21.30
2019-05-07T11:00:26.992Z,20.30
2019-05-07T11:02:58.787Z,22.50
2019-05-07T11:05:32.589Z,17.40
2019-05-07T11:08:05.008Z,19.70
2019-05-07T11:10:38.349Z,18.33
2019-05-07T11:13:10.083Z,22.07
2019-05-07T11:15:44.288Z,24.60
2019-05-07T11:18:27.216Z,23.33
2019-05-07T11:20:59.057Z,20.33
2019-05-07T11:23:32.579Z,18.27
2019-05-07T11:26:07.311Z,17.40
2019-05-07T11:28:40.081Z,25.03
2019-05-07T11:31:12.431Z,23.90
2019-05-07T11:33:44.753Z,25.57
2019-05-07T11:36:17.391Z,25.03
2019-05-07T11:38:52.792Z,24.77
2019-05-07T11:41:27.187Z,31.03
2019-05-07T11:44:03.941Z,24.93
2019-05-07T11:46:44.394Z,21.13
2019-05-07T11:49:26.269Z,21.97
2019-05-07T11:52:03.698Z,20.43
2019-05-07T11:54:37.246Z,23.20
2019-05-07T11:57:11.601Z,24.67
2019-05-07T11:59:44.483Z,24.23
2019-05-07T12:02:17.358Z,23.30
2019-05-07T12:04:50.136Z,23.67
2019-05-07T12:07:22.547Z,22.30
2019-05-07T12:09:55.232Z,23.97
2019-05-07T12:12:29.425Z,22.43
2019-05-07T12:15:04.429Z,22.17
2019-05-07T12:17:37.066Z,21.87
2019-05-07T12:20:10.086Z,24.13
2019-05-07T12:22:51.987Z,21.43
2019-05-07T12:25:23.962Z,22.57
2019-05-07T12:27:55.317Z,21.60
2019-05-07T12:30:38.416Z,21.23
2019-05-07T12:33:12.327Z,21.67
2019-05-07T12:35:45.046Z,19.90
2019-05-07T12:38:17.531Z,20.23
2019-05-07T12:40:49.369Z,19.37
2019-05-07T12:43:21.239Z,13.67
2019-05-07T12:45:54.042Z,14.67
2019-05-07T12:48:27.414Z,15.17
2019-05-07T12:50:59.808Z,15.23
2019-05-07T12:53:42.432Z,18.07
2019-05-07T12:56:14.998Z,16.47
2019-05-07T12:58:46.759Z,19.53
2019-05-07T13:01:25.546Z,19.40
2019-05-07T13:04:06.495Z,18.57
2019-05-07T13:06:40.579Z,18.80
2019-05-07T13:09:12.964Z,15.73
2019-05-07T13:11:45.620Z,15.87
2019-05-07T13:14:17.970Z,19.40
2019-05-07T13:16:52.184Z,14.67
2019-05-07T13:19:24.412Z,15.67
2019-05-07T13:21:56.129Z,15.63
2019-05-07T13:24:28.004Z,17.87
2019-05-07T13:27:03.069Z,37.97
2019-05-07T13:29:36.061Z,15.90
2019-05-07T13:32:08.822Z,14.07
2019-05-07T13:34:42.553Z,13.23
2019-05-07T13:37:16.766Z,14.17
2019-05-07T13:39:52.042Z,14.77
2019-05-07T13:42:43.974Z,14.90
2019-05-07T13:45:35.497Z,12.53
2019-05-07T13:48:12.224Z,12.50
2019-05-07T13:50:45.473Z,12.70
2019-05-07T13:53:18.144Z,15.03
2019-05-07T13:55:49.760Z,13.07
2019-05-07T13:58:22.998Z,12.70
2019-05-07T14:01:05.911Z,15.03
2019-05-07T14:03:38.723Z,15.90
2019-05-07T14:06:12.763Z,13.40
2019-05-07T14:08:45.122Z,13.10
2019-05-07T14:11:17.994Z,11.87
2019-05-07T14:13:49.530Z,11.33
2019-05-07T14:16:22.310Z,9.53
2019-05-07T14:18:55.483Z,11.50
2019-05-07T14:21:27.028Z,12.77
2019-05-07T14:23:59.634Z,10.00
2019-05-07T14:26:33.785Z,10.50
2019-05-07T14:29:06.097Z,11.03
2019-05-07T14:31:38.709Z,11.17
2019-05-07T14:34:12.865Z,17.20
2019-05-07T14:37:04.717Z,12.97
2019-05-07T14:39:35.921Z,12.37
2019-05-07T14:42:09.741Z,13.90
2019-05-07T14:44:49.373Z,12.47
2019-05-07T14:47:22.256Z,13.40
2019-05-07T14:49:55.403Z,12.67
2019-05-07T14:52:33.848Z,13.60
2019-05-07T14:55:08.489Z,13.53
2019-05-07T14:57:42.096Z,10.70
2019-05-07T15:00:14.181Z,11.67
2019-05-07T15:02:46.857Z,12.53
2019-05-07T15:05:18.801Z,16.30
2019-05-07T15:07:51.357Z,16.23
2019-05-07T15:10:24.092Z,10.93
2019-05-07T15:12:55.893Z,11.97
2019-05-07T15:15:27.227Z,11.90
2019-05-07T15:18:05.889Z,11.27
2019-05-07T15:20:38.369Z,11.40
2019-05-07T15:23:22.567Z,13.67
2019-05-07T15:25:55.453Z,14.37
2019-05-07T15:28:28.383Z,11.83
2019-05-07T15:31:14.765Z,13.17
2019-05-07T15:33:46.621Z,12.43
2019-05-07T15:36:19.433Z,13.43
2019-05-07T15:38:52.147Z,14.63
2019-05-07T15:41:24.166Z,12.40
2019-05-07T15:43:55.682Z,10.97
2019-05-07T15:46:27.076Z,15.23
2019-05-07T15:49:07.978Z,14.77
2019-05-07T15:51:41.856Z,12.27
2019-05-07T15:54:14.009Z,13.20
2019-05-07T15:56:46.543Z,11.47
2019-05-07T15:59:26.533Z,11.50
2019-05-07T16:01:59.649Z,12.30
2019-05-07T16:04:32.911Z,12.40
2019-05-07T16:07:07.573Z,13.70
2019-05-07T16:09:45.586Z,11.50
2019-05-07T16:12:19.548Z,13.50
2019-05-07T16:14:52.460Z,11.73
2019-05-07T16:17:26.549Z,13.83
2019-05-07T16:19:58.209Z,13.40
2019-05-07T16:22:32.778Z,13.77
2019-05-07T16:25:07.427Z,12.53
2019-05-07T16:27:44.961Z,14.40
2019-05-07T16:30:16.838Z,11.17
2019-05-07T16:32:48.570Z,11.77
2019-05-07T16:35:22.634Z,11.90
2019-05-07T16:37:53.473Z,11.67
2019-05-07T16:40:27.349Z,9.93
2019-05-07T16:42:59.145Z,9.67
2019-05-07T16:45:32.231Z,12.03
2019-05-07T16:48:06.413Z,11.93
2019-05-07T16:50:38.805Z,12.40
2019-05-07T16:53:26.318Z,14.80
2019-05-07T16:55:52.263Z,13.80
2019-05-07T16:58:25.795Z,11.10
2019-05-07T17:01:02.642Z,10.93
2019-05-07T17:03:36.071Z,14.70
2019-05-07T17:06:08.598Z,11.93
2019-05-07T17:08:43.653Z,14.50
2019-05-07T17:11:16.396Z,12.07
2019-05-07T17:13:49.206Z,13.70
2019-05-07T17:16:22.826Z,11.60
2019-05-07T17:18:54.904Z,12.73
2019-05-07T17:21:36.076Z,14.20
2019-05-07T17:24:07.409Z,14.53
2019-05-07T17:26:37.937Z,15.33
2019-05-07T17:29:12.048Z,10.90
2019-05-07T17:31:45.023Z,12.87
2019-05-07T17:34:17.793Z,11.70
2019-05-07T17:36:49.597Z,11.27
2019-05-07T17:39:22.668Z,11.40
2019-05-07T17:41:56.877Z,11.93
2019-05-07T17:44:29.600Z,14.33
2019-05-07T17:47:01.938Z,12.27
2019-05-07T17:49:36.484Z,12.00
2019-05-07T17:52:08.624Z,12.80
2019-05-07T17:54:42.380Z,12.87
2019-05-07T17:57:15.914Z,12.53
2019-05-07T17:59:47.081Z,12.20
2019-05-07T18:02:24.047Z,12.47
2019-05-07T18:04:57.994Z,15.13
2019-05-07T18:07:30.404Z,12.17
2019-05-07T18:10:03.094Z,13.27
2019-05-07T18:12:35.054Z,14.57
2019-05-07T18:15:07.468Z,14.47
2019-05-07T18:17:44.252Z,12.07
2019-05-07T18:20:16.183Z,16.33
2019-05-07T18:22:48.512Z,12.87
2019-05-07T18:25:21.750Z,9.13
2019-05-07T18:27:54.333Z,11.77
2019-05-07T18:30:27.093Z,11.23
2019-05-07T18:33:16.520Z,10.57
2019-05-07T18:35:52.497Z,11.53
2019-05-07T18:38:27.086Z,11.00
2019-05-07T18:41:02.368Z,12.57
2019-05-07T18:43:36.234Z,11.20
2019-05-07T18:46:09.018Z,13.37
2019-05-07T18:48:42.640Z,11.17
2019-05-07T18:51:15.025Z,11.27
2019-05-07T18:53:47.376Z,11.27
2019-05-07T18:56:19.105Z,12.47
2019-05-07T18:58:52.108Z,11.23
2019-05-07T19:01:28.295Z,10.63
2019-05-07T19:04:02.060Z,11.60
2019-05-07T19:06:34.405Z,14.17
2019-05-07T19:09:07.432Z,13.57
2019-05-07T19:11:39.192Z,11.73
2019-05-07T19:14:13.402Z,14.97
2019-05-07T19:16:45.872Z,13.77
2019-05-07T19:19:21.627Z,14.63
2019-05-07T19:21:53.701Z,14.63
2019-05-07T19:24:26.601Z,14.43
2019-05-07T19:26:59.209Z,9.50
2019-05-07T19:29:32.574Z,15.63
2019-05-07T19:32:18.390Z,15.97
2019-05-07T19:34:50.873Z,19.03
2019-05-07T19:37:24.854Z,12.30
2019-05-07T19:40:01.882Z,14.20
2019-05-07T19:42:32.011Z,12.50
2019-05-07T19:45:04.494Z,16.13
2019-05-07T19:47:37.182Z,13.67
2019-05-07T19:50:09.077Z,14.00
2019-05-07T19:52:44.806Z,15.43
2019-05-07T19:55:17.597Z,12.43
2019-05-07T19:57:52.060Z,11.40
2019-05-07T20:00:23.873Z,15.50
2019-05-07T20:02:57.273Z,16.80
2019-05-07T20:05:32.172Z,14.30
2019-05-07T20:08:04.812Z,14.03
2019-05-07T20:10:38.016Z,12.47
2019-05-07T20:13:12.306Z,14.17
2019-05-07T20:15:46.249Z,15.73
2019-05-07T20:18:21.822Z,15.73
2019-05-07T20:20:53.924Z,15.27
2019-05-07T20:23:27.082Z,13.43
2019-05-07T20:25:59.756Z,13.77
2019-05-07T20:28:32.601Z,16.97
2019-05-07T20:31:04.749Z,14.37
2019-05-07T20:33:37.546Z,14.93
2019-05-07T20:36:08.601Z,15.50
2019-05-07T20:38:42.706Z,15.33
2019-05-07T20:41:16.605Z,14.47
2019-05-07T20:43:49.041Z,15.57
2019-05-07T20:46:23.090Z,13.40
2019-05-07T20:48:55.395Z,16.50
2019-05-07T20:51:27.733Z,16.70
2019-05-07T20:54:07.342Z,17.23
2019-05-07T20:56:42.001Z,13.50
2019-05-07T20:59:14.929Z,15.90
2019-05-07T21:01:46.812Z,16.20
2019-05-07T21:04:18.365Z,16.87
2019-05-07T21:06:52.550Z,16.67
2019-05-07T21:09:27.183Z,11.93
2019-05-07T21:12:02.968Z,16.40
2019-05-07T21:14:37.565Z,13.00
2019-05-07T21:17:09.402Z,12.17
2019-05-07T21:19:42.991Z,12.50
2019-05-07T21:22:14.508Z,17.13
2019-05-07T21:24:46.920Z,16.80
2019-05-07T21:27:18.660Z,13.83
2019-05-07T21:29:52.758Z,13.47
2019-05-07T21:32:24.283Z,14.97
2019-05-07T21:34:57.086Z,11.80
2019-05-07T21:37:28.634Z,14.60
2019-05-07T21:40:02.474Z,13.43
2019-05-07T21:42:35.322Z,16.77
2019-05-07T21:45:09.994Z,14.20
2019-05-07T21:47:44.185Z,13.83
2019-05-07T21:50:17.074Z,13.87
2019-05-07T21:53:09.394Z,12.90
2019-05-07T21:55:58.891Z,15.03
2019-05-07T21:58:23.421Z,16.40
2019-05-07T22:01:16.109Z,14.40
2019-05-07T22:03:52.371Z,11.73
2019-05-07T22:06:25.101Z,13.33
2019-05-07T22:08:57.465Z,14.90
2019-05-07T22:11:32.169Z,12.63
2019-05-07T22:14:03.625Z,15.47
2019-05-07T22:16:37.668Z,13.07
2019-05-07T22:19:12.135Z,13.67
2019-05-07T22:21:45.013Z,10.57
2019-05-07T22:24:16.417Z,13.43
2019-05-07T22:26:49.229Z,11.83
2019-05-07T22:29:22.711Z,10.93
2019-05-07T22:32:03.073Z,10.60
2019-05-07T22:34:36.614Z,13.07
2019-05-07T22:37:12.663Z,12.20
2019-05-07T22:39:46.863Z,10.47
2019-05-07T22:42:22.371Z,11.87
2019-05-07T22:44:53.713Z,9.87
2019-05-07T22:47:28.685Z,10.40
2019-05-07T22:50:02.825Z,12.27
2019-05-07T22:52:36.610Z,12.87
2019-05-07T22:55:09.109Z,12.67
2019-05-07T22:57:43.369Z,12.63
2019-05-07T23:00:22.631Z,12.90
2019-05-07T23:02:55.413Z,11.00
2019-05-07T23:05:29.552Z,10.57
2019-05-07T23:08:03.473Z,11.03
2019-05-07T23:10:38.099Z,9.87
2019-05-07T23:13:12.822Z,10.80
2019-05-07T23:15:44.424Z,11.30
2019-05-07T23:18:16.130Z,7.63
2019-05-07T23:20:48.713Z,10.97
2019-05-07T23:23:21.870Z,10.43
2019-05-07T23:25:54.294Z,8.13
2019-05-07T23:28:26.623Z,11.63
2019-05-07T23:30:59.721Z,9.70
2019-05-07T23:33:32.178Z,9.80
2019-05-07T23:36:03.865Z,10.27
2019-05-07T23:38:35.554Z,12.13
2019-05-07T23:41:23.997Z,9.83
2019-05-07T23:44:17.929Z,10.57
2019-05-07T23:46:51.961Z,10.77
2019-05-07T23:49:23.527Z,14.37
2019-05-07T23:51:56.880Z,8.13
2019-05-07T23:54:31.720Z,8.13
2019-05-07T23:57:08.845Z,9.10
2019-05-07T23:59:39.330Z,12.20
